sensor_id;sensor_type;location;lat;lon;timestamp;pressure;altitude;pressure_sealevel;temperature;humidity
25420;BME280;13354;48.174;11.566;2023-02-23T00:00:32;95329.38;;;9.66;66.40
25420;BME280;13354;48.174;11.566;2023-02-23T00:02:58;95331.34;;;9.51;67.46
25420;BME280;13354;48.174;11.566;2023-02-23T00:05:26;95330.13;;;9.54;67.43
25420;BME280;13354;48.174;11.566;2023-02-23T00:07:52;95321.88;;;9.70;67.06
25420;BME280;13354;48.174;11.566;2023-02-23T00:10:19;95322.06;;;9.62;67.25
25420;BME280;13354;48.174;11.566;2023-02-23T00:12:45;95323.84;;;9.55;67.50
25420;BME280;13354;48.174;11.566;2023-02-23T00:15:11;95329.34;;;9.60;67.47
25420;BME280;13354;48.174;11.566;2023-02-23T00:17:37;95330.41;;;9.65;67.09
25420;BME280;13354;48.174;11.566;2023-02-23T00:20:05;95330.38;;;9.59;67.55
25420;BME280;13354;48.174;11.566;2023-02-23T00:22:40;95325.88;;;9.59;67.85
25420;BME280;13354;48.174;11.566;2023-02-23T00:25:06;95329.81;;;9.70;67.30
25420;BME280;13354;48.174;11.566;2023-02-23T00:27:32;95325.78;;;9.74;67.44
25420;BME280;13354;48.174;11.566;2023-02-23T00:29:57;95331.59;;;9.63;67.64
25420;BME280;13354;48.174;11.566;2023-02-23T00:32:23;95326.75;;;9.66;67.74
25420;BME280;13354;48.174;11.566;2023-02-23T00:34:48;95329.13;;;9.55;68.47
25420;BME280;13354;48.174;11.566;2023-02-23T00:37:14;95325.66;;;9.54;68.40
25420;BME280;13354;48.174;11.566;2023-02-23T00:39:39;95333.59;;;9.54;68.06
25420;BME280;13354;48.174;11.566;2023-02-23T00:42:04;95336.41;;;9.53;68.61
25420;BME280;13354;48.174;11.566;2023-02-23T00:44:30;95334.56;;;9.47;68.90
25420;BME280;13354;48.174;11.566;2023-02-23T00:46:59;95331.50;;;9.43;69.27
25420;BME280;13354;48.174;11.566;2023-02-23T00:49:24;95333.72;;;9.46;69.02
25420;BME280;13354;48.174;11.566;2023-02-23T00:51:50;95330.16;;;9.60;68.66
25420;BME280;13354;48.174;11.566;2023-02-23T00:54:16;95328.91;;;9.56;68.72
25420;BME280;13354;48.174;11.566;2023-02-23T00:56:41;95334.03;;;9.64;68.50
25420;BME280;13354;48.174;11.566;2023-02-23T00:59:07;95329.19;;;9.68;68.55
25420;BME280;13354;48.174;11.566;2023-02-23T01:01:32;95333.63;;;9.61;68.84
25420;BME280;13354;48.174;11.566;2023-02-23T01:03:57;95329.78;;;9.63;68.81
25420;BME280;13354;48.174;11.566;2023-02-23T01:06:23;95335.66;;;9.59;69.30
25420;BME280;13354;48.174;11.566;2023-02-23T01:08:48;95338.13;;;9.67;69.19
25420;BME280;13354;48.174;11.566;2023-02-23T01:11:18;95335.91;;;9.71;68.92
25420;BME280;13354;48.174;11.566;2023-02-23T01:13:47;95324.19;;;9.80;68.56
25420;BME280;13354;48.174;11.566;2023-02-23T01:16:14;95327.59;;;9.74;68.69
25420;BME280;13354;48.174;11.566;2023-02-23T01:18:40;95325.72;;;9.67;68.99
25420;BME280;13354;48.174;11.566;2023-02-23T01:21:40;95332.63;;;9.62;69.46
25420;BME280;13354;48.174;11.566;2023-02-23T01:23:58;95331.56;;;9.56;69.87
25420;BME280;13354;48.174;11.566;2023-02-23T01:26:24;95327.88;;;9.51;69.85
25420;BME280;13354;48.174;11.566;2023-02-23T01:28:50;95329.50;;;9.52;69.95
25420;BME280;13354;48.174;11.566;2023-02-23T01:31:16;95328.31;;;9.54;70.01
25420;BME280;13354;48.174;11.566;2023-02-23T01:33:41;95329.13;;;9.55;69.78
25420;BME280;13354;48.174;11.566;2023-02-23T01:36:06;95329.88;;;9.49;70.53
25420;BME280;13354;48.174;11.566;2023-02-23T01:38:31;95335.22;;;9.55;70.03
25420;BME280;13354;48.174;11.566;2023-02-23T01:40:57;95332.81;;;9.60;70.00
25420;BME280;13354;48.174;11.566;2023-02-23T01:43:22;95332.56;;;9.55;70.20
25420;BME280;13354;48.174;11.566;2023-02-23T01:45:50;95328.16;;;9.62;69.64
25420;BME280;13354;48.174;11.566;2023-02-23T01:48:17;95331.72;;;9.48;70.23
25420;BME280;13354;48.174;11.566;2023-02-23T01:50:53;95331.88;;;9.40;70.59
25420;BME280;13354;48.174;11.566;2023-02-23T01:53:19;95335.94;;;9.42;70.81
25420;BME280;13354;48.174;11.566;2023-02-23T01:55:47;95327.06;;;9.50;70.50
25420;BME280;13354;48.174;11.566;2023-02-23T01:58:14;95328.25;;;9.48;70.24
25420;BME280;13354;48.174;11.566;2023-02-23T02:00:41;95329.50;;;9.52;70.15
25420;BME280;13354;48.174;11.566;2023-02-23T02:03:08;95326.22;;;9.50;70.66
25420;BME280;13354;48.174;11.566;2023-02-23T02:05:36;95324.88;;;9.60;70.16
25420;BME280;13354;48.174;11.566;2023-02-23T02:08:02;95324.44;;;9.57;70.31
25420;BME280;13354;48.174;11.566;2023-02-23T02:10:30;95323.69;;;9.63;69.98
25420;BME280;13354;48.174;11.566;2023-02-23T02:13:05;95321.28;;;9.75;69.41
25420;BME280;13354;48.174;11.566;2023-02-23T02:15:32;95316.44;;;9.43;70.45
25420;BME280;13354;48.174;11.566;2023-02-23T02:36:07;95299.06;;;9.28;71.58
25420;BME280;13354;48.174;11.566;2023-02-23T02:38:50;95302.13;;;9.31;71.64
25420;BME280;13354;48.174;11.566;2023-02-23T02:41:34;95297.16;;;9.43;70.78
25420;BME280;13354;48.174;11.566;2023-02-23T02:44:05;95297.38;;;9.48;70.33
25420;BME280;13354;48.174;11.566;2023-02-23T02:46:34;95296.66;;;9.33;71.13
25420;BME280;13354;48.174;11.566;2023-02-23T02:49:06;95299.47;;;9.31;71.16
25420;BME280;13354;48.174;11.566;2023-02-23T02:51:36;95305.19;;;9.35;71.04
25420;BME280;13354;48.174;11.566;2023-02-23T02:56:39;95299.06;;;9.28;71.19
25420;BME280;13354;48.174;11.566;2023-02-23T02:59:07;95296.84;;;9.31;71.30
25420;BME280;13354;48.174;11.566;2023-02-23T03:01:54;95298.88;;;9.29;71.53
25420;BME280;13354;48.174;11.566;2023-02-23T03:04:38;95303.09;;;9.24;71.68
25420;BME280;13354;48.174;11.566;2023-02-23T03:07:24;95305.56;;;9.25;71.49
25420;BME280;13354;48.174;11.566;2023-02-23T03:24:57;95310.25;;;9.30;71.44
25420;BME280;13354;48.174;11.566;2023-02-23T03:27:48;95307.88;;;9.41;70.84
25420;BME280;13354;48.174;11.566;2023-02-23T03:36:27;95300.88;;;9.27;71.43
25420;BME280;13354;48.174;11.566;2023-02-23T03:39:16;95302.97;;;9.32;71.39
25420;BME280;13354;48.174;11.566;2023-02-23T03:42:03;95304.38;;;9.34;71.22
25420;BME280;13354;48.174;11.566;2023-02-23T03:44:48;95310.69;;;9.33;71.02
25420;BME280;13354;48.174;11.566;2023-02-23T03:47:34;95311.53;;;9.40;71.05
25420;BME280;13354;48.174;11.566;2023-02-23T03:50:31;95311.81;;;9.24;71.81
25420;BME280;13354;48.174;11.566;2023-02-23T03:53:17;95321.28;;;9.12;72.19
25420;BME280;13354;48.174;11.566;2023-02-23T03:56:02;95315.84;;;9.13;72.33
25420;BME280;13354;48.174;11.566;2023-02-23T03:58:48;95311.59;;;9.19;71.98
25420;BME280;13354;48.174;11.566;2023-02-23T04:01:33;95314.88;;;9.21;72.00
25420;BME280;13354;48.174;11.566;2023-02-23T04:04:18;95314.44;;;9.17;72.27
25420;BME280;13354;48.174;11.566;2023-02-23T04:07:03;95316.28;;;9.17;72.24
25420;BME280;13354;48.174;11.566;2023-02-23T04:09:49;95319.34;;;9.21;71.96
25420;BME280;13354;48.174;11.566;2023-02-23T04:12:36;95315.63;;;9.15;72.07
25420;BME280;13354;48.174;11.566;2023-02-23T04:17:46;95323.47;;;9.30;71.56
25420;BME280;13354;48.174;11.566;2023-02-23T04:20:12;95325.56;;;9.13;72.02
25420;BME280;13354;48.174;11.566;2023-02-23T04:22:37;95316.72;;;9.21;71.79
25420;BME280;13354;48.174;11.566;2023-02-23T04:25:03;95326.63;;;9.18;72.01
25420;BME280;13354;48.174;11.566;2023-02-23T04:27:30;95331.09;;;9.18;72.09
25420;BME280;13354;48.174;11.566;2023-02-23T04:29:55;95325.75;;;9.11;72.31
25420;BME280;13354;48.174;11.566;2023-02-23T04:32:20;95319.81;;;9.03;72.51
25420;BME280;13354;48.174;11.566;2023-02-23T04:34:45;95323.00;;;8.98;72.91
25420;BME280;13354;48.174;11.566;2023-02-23T04:37:11;95324.16;;;8.89;73.27
25420;BME280;13354;48.174;11.566;2023-02-23T04:39:37;95323.28;;;8.82;73.08
25420;BME280;13354;48.174;11.566;2023-02-23T04:42:02;95318.06;;;8.88;73.08
25420;BME280;13354;48.174;11.566;2023-02-23T04:44:27;95320.88;;;8.87;73.39
25420;BME280;13354;48.174;11.566;2023-02-23T04:46:52;95320.25;;;8.85;73.00
25420;BME280;13354;48.174;11.566;2023-02-23T04:49:17;95327.47;;;8.76;73.23
25420;BME280;13354;48.174;11.566;2023-02-23T04:51:43;95325.41;;;8.71;73.48
25420;BME280;13354;48.174;11.566;2023-02-23T04:54:08;95327.53;;;8.61;73.88
25420;BME280;13354;48.174;11.566;2023-02-23T04:56:33;95331.41;;;8.59;74.32
25420;BME280;13354;48.174;11.566;2023-02-23T04:58:58;95328.69;;;8.52;74.43
25420;BME280;13354;48.174;11.566;2023-02-23T05:01:24;95328.47;;;8.54;74.38
25420;BME280;13354;48.174;11.566;2023-02-23T05:03:49;95334.31;;;8.49;74.60
25420;BME280;13354;48.174;11.566;2023-02-23T05:06:15;95334.41;;;8.56;74.72
25420;BME280;13354;48.174;11.566;2023-02-23T05:08:41;95330.38;;;8.60;74.66
25420;BME280;13354;48.174;11.566;2023-02-23T05:11:06;95328.47;;;8.54;74.62
25420;BME280;13354;48.174;11.566;2023-02-23T05:13:32;95331.69;;;8.49;74.82
25420;BME280;13354;48.174;11.566;2023-02-23T05:15:57;95337.91;;;8.41;74.54
25420;BME280;13354;48.174;11.566;2023-02-23T05:18:22;95340.91;;;8.38;74.92
25420;BME280;13354;48.174;11.566;2023-02-23T05:20:49;95329.53;;;8.38;74.68
25420;BME280;13354;48.174;11.566;2023-02-23T05:23:14;95334.72;;;8.31;74.79
25420;BME280;13354;48.174;11.566;2023-02-23T05:25:39;95335.72;;;8.30;75.30
25420;BME280;13354;48.174;11.566;2023-02-23T05:28:04;95339.00;;;8.32;75.66
25420;BME280;13354;48.174;11.566;2023-02-23T05:30:30;95339.91;;;8.39;75.64
25420;BME280;13354;48.174;11.566;2023-02-23T05:32:55;95331.94;;;8.76;74.73
25420;BME280;13354;48.174;11.566;2023-02-23T05:35:20;95334.78;;;8.74;74.82
25420;BME280;13354;48.174;11.566;2023-02-23T05:37:45;95338.75;;;8.85;74.25
25420;BME280;13354;48.174;11.566;2023-02-23T05:40:11;95336.25;;;9.05;73.30
25420;BME280;13354;48.174;11.566;2023-02-23T05:42:36;95336.91;;;9.07;73.00
25420;BME280;13354;48.174;11.566;2023-02-23T05:45:02;95334.50;;;8.90;73.74
25420;BME280;13354;48.174;11.566;2023-02-23T05:47:29;95345.44;;;9.09;72.79
25420;BME280;13354;48.174;11.566;2023-02-23T05:49:54;95339.09;;;9.03;73.09
25420;BME280;13354;48.174;11.566;2023-02-23T05:52:20;95339.56;;;8.85;74.05
25420;BME280;13354;48.174;11.566;2023-02-23T05:54:45;95339.50;;;8.79;74.39
25420;BME280;13354;48.174;11.566;2023-02-23T05:57:10;95342.88;;;8.73;74.34
25420;BME280;13354;48.174;11.566;2023-02-23T05:59:35;95346.28;;;8.66;74.42
25420;BME280;13354;48.174;11.566;2023-02-23T06:02:01;95348.03;;;8.59;74.85
25420;BME280;13354;48.174;11.566;2023-02-23T06:04:28;95348.66;;;8.61;75.34
25420;BME280;13354;48.174;11.566;2023-02-23T06:06:53;95349.44;;;8.55;75.46
25420;BME280;13354;48.174;11.566;2023-02-23T06:09:19;95347.66;;;8.62;75.38
25420;BME280;13354;48.174;11.566;2023-02-23T06:11:44;95354.56;;;8.63;75.49
25420;BME280;13354;48.174;11.566;2023-02-23T06:14:09;95344.66;;;8.65;75.39
25420;BME280;13354;48.174;11.566;2023-02-23T06:16:34;95351.88;;;8.78;75.24
25420;BME280;13354;48.174;11.566;2023-02-23T06:18:59;95344.56;;;9.02;73.79
25420;BME280;13354;48.174;11.566;2023-02-23T06:21:25;95350.25;;;8.99;73.91
25420;BME280;13354;48.174;11.566;2023-02-23T06:23:50;95345.84;;;9.06;73.34
25420;BME280;13354;48.174;11.566;2023-02-23T06:26:16;95357.53;;;8.97;73.96
25420;BME280;13354;48.174;11.566;2023-02-23T06:28:41;95361.63;;;8.99;74.21
25420;BME280;13354;48.174;11.566;2023-02-23T06:31:07;95358.19;;;9.05;73.62
25420;BME280;13354;48.174;11.566;2023-02-23T06:33:32;95363.53;;;9.12;73.56
25420;BME280;13354;48.174;11.566;2023-02-23T06:35:57;95367.63;;;9.14;73.53
25420;BME280;13354;48.174;11.566;2023-02-23T06:38:22;95369.28;;;9.15;73.62
25420;BME280;13354;48.174;11.566;2023-02-23T06:40:48;95372.78;;;9.23;73.08
25420;BME280;13354;48.174;11.566;2023-02-23T06:43:13;95375.16;;;9.39;72.36
25420;BME280;13354;48.174;11.566;2023-02-23T06:45:38;95372.75;;;9.44;72.31
25420;BME280;13354;48.174;11.566;2023-02-23T06:48:04;95371.03;;;9.58;71.45
25420;BME280;13354;48.174;11.566;2023-02-23T06:50:30;95380.69;;;9.44;72.21
25420;BME280;13354;48.174;11.566;2023-02-23T06:52:55;95382.06;;;9.40;72.53
25420;BME280;13354;48.174;11.566;2023-02-23T06:55:21;95380.19;;;9.34;72.98
25420;BME280;13354;48.174;11.566;2023-02-23T06:57:47;95386.91;;;9.36;73.04
25420;BME280;13354;48.174;11.566;2023-02-23T07:00:13;95383.47;;;9.36;73.44
25420;BME280;13354;48.174;11.566;2023-02-23T07:02:39;95389.34;;;9.38;73.45
25420;BME280;13354;48.174;11.566;2023-02-23T07:05:04;95383.38;;;9.51;73.08
25420;BME280;13354;48.174;11.566;2023-02-23T07:07:30;95387.25;;;9.55;72.71
25420;BME280;13354;48.174;11.566;2023-02-23T07:09:56;95385.22;;;9.57;73.14
25420;BME280;13354;48.174;11.566;2023-02-23T07:12:22;95392.19;;;9.64;72.56
25420;BME280;13354;48.174;11.566;2023-02-23T07:14:47;95386.25;;;9.56;73.24
25420;BME280;13354;48.174;11.566;2023-02-23T07:17:12;95386.25;;;9.56;73.68
25420;BME280;13354;48.174;11.566;2023-02-23T07:19:37;95387.31;;;9.61;73.46
25420;BME280;13354;48.174;11.566;2023-02-23T07:22:02;95391.03;;;9.74;72.93
25420;BME280;13354;48.174;11.566;2023-02-23T07:24:28;95385.31;;;9.70;72.96
25420;BME280;13354;48.174;11.566;2023-02-23T07:26:54;95391.69;;;9.76;73.06
25420;BME280;13354;48.174;11.566;2023-02-23T07:29:19;95393.63;;;9.95;72.05
25420;BME280;13354;48.174;11.566;2023-02-23T07:31:44;95392.56;;;9.89;72.55
25420;BME280;13354;48.174;11.566;2023-02-23T07:34:09;95389.81;;;9.70;73.19
25420;BME280;13354;48.174;11.566;2023-02-23T07:36:35;95391.47;;;9.77;73.63
25420;BME280;13354;48.174;11.566;2023-02-23T07:39:00;95390.94;;;9.88;72.71
25420;BME280;13354;48.174;11.566;2023-02-23T07:41:26;95392.22;;;9.99;72.87
25420;BME280;13354;48.174;11.566;2023-02-23T07:43:51;95385.41;;;10.18;71.82
25420;BME280;13354;48.174;11.566;2023-02-23T07:46:16;95396.56;;;10.13;71.57
25420;BME280;13354;48.174;11.566;2023-02-23T07:48:42;95393.47;;;10.03;72.22
25420;BME280;13354;48.174;11.566;2023-02-23T07:51:09;95391.41;;;9.99;72.30
25420;BME280;13354;48.174;11.566;2023-02-23T07:53:35;95395.47;;;10.01;72.39
25420;BME280;13354;48.174;11.566;2023-02-23T07:56:01;95404.59;;;10.27;71.47
25420;BME280;13354;48.174;11.566;2023-02-23T07:58:28;95395.97;;;10.18;72.12
25420;BME280;13354;48.174;11.566;2023-02-23T08:00:54;95402.63;;;10.07;72.76
25420;BME280;13354;48.174;11.566;2023-02-23T08:03:20;95398.69;;;9.97;73.61
25420;BME280;13354;48.174;11.566;2023-02-23T08:05:45;95399.94;;;10.01;73.87
25420;BME280;13354;48.174;11.566;2023-02-23T08:08:11;95397.34;;;10.07;73.78
25420;BME280;13354;48.174;11.566;2023-02-23T08:10:36;95401.47;;;10.16;73.64
25420;BME280;13354;48.174;11.566;2023-02-23T08:13:02;95403.69;;;10.13;73.65
25420;BME280;13354;48.174;11.566;2023-02-23T08:15:27;95402.72;;;10.21;73.80
25420;BME280;13354;48.174;11.566;2023-02-23T08:17:52;95394.66;;;10.35;73.57
25420;BME280;13354;48.174;11.566;2023-02-23T08:20:17;95406.56;;;10.18;74.46
25420;BME280;13354;48.174;11.566;2023-02-23T08:22:43;95407.69;;;10.37;73.79
25420;BME280;13354;48.174;11.566;2023-02-23T08:25:08;95409.06;;;10.26;73.95
25420;BME280;13354;48.174;11.566;2023-02-23T08:27:34;95411.47;;;10.21;74.60
25420;BME280;13354;48.174;11.566;2023-02-23T08:30:00;95412.06;;;10.23;74.54
25420;BME280;13354;48.174;11.566;2023-02-23T08:32:28;95403.47;;;10.49;73.23
25420;BME280;13354;48.174;11.566;2023-02-23T08:34:54;95403.03;;;10.39;73.48
25420;BME280;13354;48.174;11.566;2023-02-23T08:37:21;95405.84;;;10.37;74.12
25420;BME280;13354;48.174;11.566;2023-02-23T08:39:47;95404.59;;;10.27;74.38
25420;BME280;13354;48.174;11.566;2023-02-23T08:42:12;95397.91;;;10.37;74.57
25420;BME280;13354;48.174;11.566;2023-02-23T08:44:38;95399.16;;;10.42;74.12
25420;BME280;13354;48.174;11.566;2023-02-23T08:47:03;95396.94;;;10.38;74.32
25420;BME280;13354;48.174;11.566;2023-02-23T08:49:28;95402.25;;;10.52;73.62
25420;BME280;13354;48.174;11.566;2023-02-23T08:51:55;95399.28;;;10.68;73.07
25420;BME280;13354;48.174;11.566;2023-02-23T08:54:20;95399.22;;;10.55;74.00
25420;BME280;13354;48.174;11.566;2023-02-23T08:56:45;95395.38;;;10.57;74.04
25420;BME280;13354;48.174;11.566;2023-02-23T08:59:11;95394.13;;;10.53;74.31
25420;BME280;13354;48.174;11.566;2023-02-23T09:01:36;95397.59;;;10.54;74.30
25420;BME280;13354;48.174;11.566;2023-02-23T09:04:02;95396.78;;;10.60;74.02
25420;BME280;13354;48.174;11.566;2023-02-23T09:06:28;95395.34;;;10.64;74.08
25420;BME280;13354;48.174;11.566;2023-02-23T09:08:54;95397.00;;;10.65;73.92
25420;BME280;13354;48.174;11.566;2023-02-23T09:11:20;95396.44;;;10.76;73.78
25420;BME280;13354;48.174;11.566;2023-02-23T09:13:45;95392.97;;;10.89;73.27
25420;BME280;13354;48.174;11.566;2023-02-23T09:16:10;95394.88;;;11.22;72.37
25420;BME280;13354;48.174;11.566;2023-02-23T09:18:36;95403.22;;;10.99;72.94
25420;BME280;13354;48.174;11.566;2023-02-23T09:21:05;95394.06;;;11.01;73.13
25420;BME280;13354;48.174;11.566;2023-02-23T09:23:35;95406.28;;;11.02;73.18
25420;BME280;13354;48.174;11.566;2023-02-23T09:26:04;95403.41;;;11.04;73.05
25420;BME280;13354;48.174;11.566;2023-02-23T09:28:29;95412.16;;;10.91;73.50
25420;BME280;13354;48.174;11.566;2023-02-23T09:30:54;95411.16;;;11.05;73.37
25420;BME280;13354;48.174;11.566;2023-02-23T09:33:20;95415.84;;;11.10;73.27
25420;BME280;13354;48.174;11.566;2023-02-23T09:35:45;95398.09;;;11.04;73.52
25420;BME280;13354;48.174;11.566;2023-02-23T09:38:10;95404.22;;;11.04;73.51
25420;BME280;13354;48.174;11.566;2023-02-23T09:40:43;95398.56;;;11.27;73.04
25420;BME280;13354;48.174;11.566;2023-02-23T09:43:11;95403.84;;;11.41;71.79
25420;BME280;13354;48.174;11.566;2023-02-23T09:45:50;95411.41;;;11.30;72.59
25420;BME280;13354;48.174;11.566;2023-02-23T09:48:21;95405.28;;;11.30;73.32
25420;BME280;13354;48.174;11.566;2023-02-23T09:50:51;95409.56;;;11.24;73.09
25420;BME280;13354;48.174;11.566;2023-02-23T09:53:23;95411.97;;;11.19;73.61
25420;BME280;13354;48.174;11.566;2023-02-23T09:55:50;95411.59;;;11.35;72.64
25420;BME280;13354;48.174;11.566;2023-02-23T09:58:27;95416.88;;;11.22;72.96
25420;BME280;13354;48.174;11.566;2023-02-23T10:01:10;95418.94;;;11.20;72.99
25420;BME280;13354;48.174;11.566;2023-02-23T10:03:41;95416.31;;;11.47;72.00
25420;BME280;13354;48.174;11.566;2023-02-23T10:06:12;95417.53;;;11.51;72.18
25420;BME280;13354;48.174;11.566;2023-02-23T10:08:49;95420.38;;;11.56;71.60
25420;BME280;13354;48.174;11.566;2023-02-23T10:19:11;95423.25;;;11.61;71.05
25420;BME280;13354;48.174;11.566;2023-02-23T10:21:44;95412.41;;;11.63;71.29
25420;BME280;13354;48.174;11.566;2023-02-23T10:24:27;95411.59;;;11.75;70.43
25420;BME280;13354;48.174;11.566;2023-02-23T10:26:55;95416.91;;;11.69;71.20
25420;BME280;13354;48.174;11.566;2023-02-23T10:31:48;95415.91;;;11.90;70.42
25420;BME280;13354;48.174;11.566;2023-02-23T10:34:15;95419.97;;;11.92;70.29
25420;BME280;13354;48.174;11.566;2023-02-23T10:36:46;95416.09;;;11.95;70.02
25420;BME280;13354;48.174;11.566;2023-02-23T10:39:12;95422.44;;;11.87;69.67
25420;BME280;13354;48.174;11.566;2023-02-23T10:41:37;95421.41;;;11.95;69.44
25420;BME280;13354;48.174;11.566;2023-02-23T10:44:03;95417.91;;;11.81;70.15
25420;BME280;13354;48.174;11.566;2023-02-23T10:46:34;95421.38;;;11.81;70.22
25420;BME280;13354;48.174;11.566;2023-02-23T10:49:01;95412.63;;;11.88;70.25
25420;BME280;13354;48.174;11.566;2023-02-23T10:51:28;95412.63;;;12.01;69.02
25420;BME280;13354;48.174;11.566;2023-02-23T10:53:54;95409.94;;;12.07;69.10
25420;BME280;13354;48.174;11.566;2023-02-23T10:56:19;95417.09;;;12.07;68.54
25420;BME280;13354;48.174;11.566;2023-02-23T10:58:51;95409.75;;;11.96;69.07
25420;BME280;13354;48.174;11.566;2023-02-23T11:01:50;95414.66;;;11.99;68.98
25420;BME280;13354;48.174;11.566;2023-02-23T11:04:17;95406.28;;;12.02;68.65
25420;BME280;13354;48.174;11.566;2023-02-23T11:06:45;95408.31;;;12.06;68.61
25420;BME280;13354;48.174;11.566;2023-02-23T11:09:25;95416.72;;;11.97;68.92
25420;BME280;13354;48.174;11.566;2023-02-23T11:11:57;95407.91;;;12.09;68.36
25420;BME280;13354;48.174;11.566;2023-02-23T11:14:23;95405.88;;;12.05;68.14
25420;BME280;13354;48.174;11.566;2023-02-23T11:16:49;95402.38;;;12.11;68.43
25420;BME280;13354;48.174;11.566;2023-02-23T11:19:20;95396.63;;;12.21;68.32
25420;BME280;13354;48.174;11.566;2023-02-23T11:21:49;95402.38;;;12.11;68.52
25420;BME280;13354;48.174;11.566;2023-02-23T11:24:23;95397.19;;;12.36;68.26
25420;BME280;13354;48.174;11.566;2023-02-23T11:26:50;95390.19;;;12.55;68.09
25420;BME280;13354;48.174;11.566;2023-02-23T11:29:25;95386.38;;;12.82;67.57
25420;BME280;13354;48.174;11.566;2023-02-23T11:31:54;95387.94;;;12.97;66.15
25420;BME280;13354;48.174;11.566;2023-02-23T11:34:22;95378.53;;;12.94;65.83
25420;BME280;13354;48.174;11.566;2023-02-23T11:37:24;95378.94;;;12.98;65.50
25420;BME280;13354;48.174;11.566;2023-02-23T11:40:00;95376.13;;;12.93;65.55
25420;BME280;13354;48.174;11.566;2023-02-23T11:42:26;95371.38;;;12.95;65.65
25420;BME280;13354;48.174;11.566;2023-02-23T11:45:05;95370.56;;;12.94;65.75
25420;BME280;13354;48.174;11.566;2023-02-23T11:47:31;95363.72;;;13.12;65.55
25420;BME280;13354;48.174;11.566;2023-02-23T11:49:56;95361.50;;;13.40;65.23
25420;BME280;13354;48.174;11.566;2023-02-23T11:52:23;95359.94;;;13.76;63.73
25420;BME280;13354;48.174;11.566;2023-02-23T11:54:53;95365.72;;;14.10;61.52
25420;BME280;13354;48.174;11.566;2023-02-23T11:57:21;95357.97;;;14.08;60.84
25420;BME280;13354;48.174;11.566;2023-02-23T11:59:47;95356.56;;;14.06;60.33
25420;BME280;13354;48.174;11.566;2023-02-23T12:04:43;95354.56;;;13.33;62.40
25420;BME280;13354;48.174;11.566;2023-02-23T12:09:43;95348.16;;;13.15;63.50
25420;BME280;13354;48.174;11.566;2023-02-23T12:12:12;95347.47;;;12.95;64.14
25420;BME280;13354;48.174;11.566;2023-02-23T12:14:42;95345.78;;;13.07;63.97
25420;BME280;13354;48.174;11.566;2023-02-23T12:17:24;95344.47;;;13.16;63.74
25420;BME280;13354;48.174;11.566;2023-02-23T12:22:19;95339.75;;;13.18;64.36
25420;BME280;13354;48.174;11.566;2023-02-23T12:24:51;95335.59;;;13.29;63.69
25420;BME280;13354;48.174;11.566;2023-02-23T12:32:40;95336.47;;;13.48;62.98
25420;BME280;13354;48.174;11.566;2023-02-23T12:35:18;95327.47;;;13.49;62.73
25420;BME280;13354;48.174;11.566;2023-02-23T12:37:55;95331.69;;;13.57;62.20
25420;BME280;13354;48.174;11.566;2023-02-23T12:40:24;95328.56;;;13.41;61.80
25420;BME280;13354;48.174;11.566;2023-02-23T12:45:38;95335.03;;;13.20;62.75
25420;BME280;13354;48.174;11.566;2023-02-23T12:48:11;95331.56;;;13.20;62.91
25420;BME280;13354;48.174;11.566;2023-02-23T12:50:44;95324.50;;;13.07;63.28
25420;BME280;13354;48.174;11.566;2023-02-23T12:53:21;95326.25;;;13.20;63.24
25420;BME280;13354;48.174;11.566;2023-02-23T12:55:57;95329.84;;;13.32;62.89
25420;BME280;13354;48.174;11.566;2023-02-23T13:05:47;95322.66;;;13.58;62.51
25420;BME280;13354;48.174;11.566;2023-02-23T13:08:21;95311.69;;;13.47;62.54
25420;BME280;13354;48.174;11.566;2023-02-23T13:15:54;95307.28;;;13.41;63.42
25420;BME280;13354;48.174;11.566;2023-02-23T13:18:27;95310.00;;;13.35;63.71
25420;BME280;13354;48.174;11.566;2023-02-23T13:23:45;95316.16;;;13.28;63.54
25420;BME280;13354;48.174;11.566;2023-02-23T13:31:19;95311.28;;;13.25;63.17
25420;BME280;13354;48.174;11.566;2023-02-23T13:33:45;95305.72;;;13.34;62.63
25420;BME280;13354;48.174;11.566;2023-02-23T13:36:11;95304.75;;;13.21;62.72
25420;BME280;13354;48.174;11.566;2023-02-23T13:41:21;95303.09;;;13.27;62.16
25420;BME280;13354;48.174;11.566;2023-02-23T13:43:54;95304.16;;;13.26;62.80
25420;BME280;13354;48.174;11.566;2023-02-23T13:46:34;95304.63;;;13.41;62.09
25420;BME280;13354;48.174;11.566;2023-02-23T13:51:56;95298.97;;;13.31;61.34
25420;BME280;13354;48.174;11.566;2023-02-23T13:54:24;95299.22;;;13.23;61.64
25420;BME280;13354;48.174;11.566;2023-02-23T13:56:54;95302.16;;;13.40;60.99
25420;BME280;13354;48.174;11.566;2023-02-23T13:59:20;95303.31;;;13.25;61.79
25420;BME280;13354;48.174;11.566;2023-02-23T14:01:50;95303.50;;;13.31;61.74
25420;BME280;13354;48.174;11.566;2023-02-23T14:04:24;95297.44;;;13.42;61.49
25420;BME280;13354;48.174;11.566;2023-02-23T14:06:51;95302.78;;;13.42;61.67
25420;BME280;13354;48.174;11.566;2023-02-23T14:19:41;95297.34;;;13.55;61.12
25420;BME280;13354;48.174;11.566;2023-02-23T14:22:14;95293.34;;;13.83;60.03
25420;BME280;13354;48.174;11.566;2023-02-23T14:24:42;95298.00;;;13.69;61.08
25420;BME280;13354;48.174;11.566;2023-02-23T14:27:23;95293.84;;;13.73;61.76
25420;BME280;13354;48.174;11.566;2023-02-23T14:32:45;95290.03;;;13.69;60.21
25420;BME280;13354;48.174;11.566;2023-02-23T14:37:55;95287.28;;;13.75;59.75
25420;BME280;13354;48.174;11.566;2023-02-23T14:40:28;95286.56;;;13.68;59.88
25420;BME280;13354;48.174;11.566;2023-02-23T14:42:56;95279.63;;;13.86;59.01
25420;BME280;13354;48.174;11.566;2023-02-23T14:45:22;95288.84;;;13.65;59.01
25420;BME280;13354;48.174;11.566;2023-02-23T14:47:51;95288.03;;;13.64;59.16
25420;BME280;13354;48.174;11.566;2023-02-23T14:50:22;95288.53;;;13.54;59.67
25420;BME280;13354;48.174;11.566;2023-02-23T14:52:48;95282.81;;;13.51;59.81
25420;BME280;13354;48.174;11.566;2023-02-23T14:55:25;95284.50;;;13.27;60.59